Time;durP1;ratioP1;P1;durP2;ratioP2;P2;SDS_P1;SDS_P2;PMS_P1;PMS_P2;Temp;Humidity;BMP_temperature;BMP_pressure;BME280_temperature;BME280_humidity;BME280_pressure;Samples;Min_cycle;Max_cycle;Signal;HPM_P1;HPM_P2
2022/06/27 00:01:21;;;;;;;;;4.00;3.00;;;;;18.71;62.74;100930.16;4974100;28;45619;-81
2022/06/27 00:03:47;;;;;;;;;5.00;4.00;;;;;18.50;62.50;100893.66;4974953;28;45385;-82
2022/06/27 00:06:12;;;;;;;;;1.75;1.75;;;;;18.54;62.88;100909.66;4969734;28;45545;-81
2022/06/27 00:08:37;;;;;;;;;3.50;3.50;;;;;18.62;62.88;100927.41;4964438;28;45508;-81
2022/06/27 00:11:04;;;;;;;;;3.25;3.25;;;;;18.65;63.15;100946.97;4955971;28;45295;-81
2022/06/27 00:13:29;;;;;;;;;2.50;2.50;;;;;18.50;62.85;100941.56;4943319;28;46456;-82
2022/06/27 00:15:54;;;;;;;;;2.50;2.50;;;;;18.47;63.05;100947.78;4967098;28;45452;-82
2022/06/27 00:18:20;;;;;;;;;3.50;3.00;;;;;18.17;62.96;100908.56;4976131;28;45298;-81
2022/06/27 00:20:45;;;;;;;;;3.00;3.00;;;;;18.32;63.73;100937.03;4970025;28;45440;-82
2022/06/27 00:23:11;;;;;;;;;4.50;3.50;;;;;18.31;63.54;100940.56;4978300;28;45661;-81
2022/06/27 00:25:36;;;;;;;;;2.00;2.00;;;;;18.16;63.87;100913.88;4976397;28;45511;-82
2022/06/27 00:28:01;;;;;;;;;3.00;3.00;;;;;18.24;63.84;100933.44;4978372;28;45629;-82
2022/06/27 00:30:27;;;;;;;;;2.75;2.25;;;;;18.04;63.62;100912.03;4977711;28;45377;-82
2022/06/27 00:32:52;;;;;;;;;3.00;2.25;;;;;17.99;64.30;100912.00;4976091;28;46901;-82
2022/06/27 00:35:18;;;;;;;;;2.50;2.50;;;;;18.04;64.07;100930.66;4977240;28;45466;-79
2022/06/27 00:37:43;;;;;;;;;4.50;4.50;;;;;17.94;64.01;100921.72;4977674;28;45683;-80
2022/06/27 00:40:09;;;;;;;;;3.75;2.50;;;;;18.02;64.32;100938.59;4975331;28;45564;-81
2022/06/27 00:42:35;;;;;;;;;2.25;1.75;;;;;17.91;64.75;100921.69;4978421;28;46566;-81
2022/06/27 00:45:00;;;;;;;;;3.50;3.50;;;;;17.80;64.73;100920.72;4976157;28;45256;-83
2022/06/27 00:47:26;;;;;;;;;4.25;3.00;;;;;17.89;64.90;100941.19;4977193;28;45484;-82
2022/06/27 00:49:51;;;;;;;;;2.75;2.75;;;;;17.90;64.62;100946.50;4975508;28;46988;-82
2022/06/27 00:52:17;;;;;;;;;4.00;3.75;;;;;17.60;64.86;100893.94;4959975;28;51323;-81
2022/06/27 00:54:45;;;;;;;;;2.50;2.50;;;;;17.89;64.76;100947.38;4971479;28;45553;-80
2022/06/27 00:57:12;;;;;;;;;3.00;2.75;;;;;17.88;65.52;100944.69;4962324;28;45684;-82
2022/06/27 00:59:37;;;;;;;;;3.00;3.00;;;;;17.77;65.36;100926.88;4968269;28;45474;-81
2022/06/27 01:02:04;;;;;;;;;3.25;3.25;;;;;17.93;65.00;100948.28;4967345;28;45833;-81
2022/06/27 01:04:29;;;;;;;;;4.00;3.75;;;;;17.56;64.96;100881.50;4963898;28;45474;-82
2022/06/27 01:06:55;;;;;;;;;3.00;3.00;;;;;17.84;65.80;100933.16;4964758;28;45737;-82
2022/06/27 01:09:22;;;;;;;;;3.75;3.25;;;;;17.85;65.95;100936.72;4967551;28;45465;-81
2022/06/27 01:11:48;;;;;;;;;3.00;2.00;;;;;17.80;65.38;100936.66;4956671;28;48528;-81
2022/06/27 01:14:15;;;;;;;;;4.00;4.00;;;;;17.88;65.64;100945.63;4975046;28;45266;-78
2022/06/27 01:16:40;;;;;;;;;4.25;3.00;;;;;17.90;65.72;100948.28;4975259;28;45342;-80
2022/06/27 01:19:11;;;;;;;;;3.25;3.00;;;;;17.78;66.08;100938.41;4975171;28;45374;-79
2022/06/27 01:21:45;;;;;;;;;3.25;3.25;;;;;17.94;65.99;100979.34;4974758;28;45449;-79
2022/06/27 01:24:10;;;;;;;;;6.00;5.00;;;;;17.66;65.68;100919.69;4975478;28;45869;-78
2022/06/27 01:26:35;;;;;;;;;5.50;5.00;;;;;17.85;65.88;100958.88;4975489;28;45360;-79
2022/06/27 01:29:01;;;;;;;;;3.75;3.75;;;;;17.93;65.67;100965.16;4974923;28;45531;-81
2022/06/27 01:31:27;;;;;;;;;4.50;4.50;;;;;17.86;65.97;100955.31;4975098;28;47042;-82
2022/06/27 01:33:53;;;;;;;;;3.00;3.00;;;;;18.01;65.66;100974.06;4952866;28;45650;-82
2022/06/27 01:39:03;;;;;;;;;2.50;2.50;;;;;18.05;66.12;100967.88;4966807;28;45886;-81
2022/06/27 01:41:28;;;;;;;;;3.00;3.00;;;;;18.01;65.06;100958.09;4967791;28;47090;-79
2022/06/27 01:43:53;;;;;;;;;2.00;2.00;;;;;18.03;65.43;100958.13;4963182;28;45491;-82
2022/06/27 01:46:19;;;;;;;;;2.00;1.00;;;;;18.11;65.31;100959.06;4965948;28;45632;-82
2022/06/27 01:48:44;;;;;;;;;3.75;2.75;;;;;18.07;65.76;100953.72;4967964;28;45458;-82
2022/06/27 01:51:11;;;;;;;;;3.50;2.50;;;;;18.06;65.28;100939.53;4980429;28;47281;-82
2022/06/27 01:53:37;;;;;;;;;2.50;2.50;;;;;18.10;64.92;100946.66;4985178;28;45224;-81
2022/06/27 01:56:03;;;;;;;;;1.75;1.75;;;;;18.14;65.00;100939.59;4989862;28;45236;-82
2022/06/27 01:58:29;;;;;;;;;3.00;2.25;;;;;18.17;65.30;100948.47;4966380;28;45429;-79
2022/06/27 02:00:55;;;;;;;;;2.75;2.00;;;;;18.02;65.62;100927.06;4963543;28;45614;-81
2022/06/27 02:03:21;;;;;;;;;4.00;3.00;;;;;18.04;65.46;100931.53;4975759;28;45853;-81
2022/06/27 02:05:47;;;;;;;;;2.00;2.00;;;;;18.01;65.01;100930.63;4955471;28;45499;-81
2022/06/27 02:08:14;;;;;;;;;2.25;2.25;;;;;18.16;65.65;100946.69;4964868;28;45524;-80
2022/06/27 02:10:39;;;;;;;;;3.00;3.00;;;;;18.01;65.25;100927.97;4973971;28;45636;-81
2022/06/27 02:13:05;;;;;;;;;3.00;2.75;;;;;18.09;65.41;100944.00;4974659;28;45384;-81
2022/06/27 02:15:31;;;;;;;;;3.75;3.75;;;;;17.87;65.39;100901.25;4980735;28;45475;-80
2022/06/27 02:17:57;;;;;;;;;2.75;2.75;;;;;18.11;65.24;100936.91;4977902;28;45774;-79
2022/06/27 02:20:22;;;;;;;;;2.00;2.00;;;;;18.05;64.75;100917.34;4988081;28;46000;-82
2022/06/27 02:22:48;;;;;;;;;3.00;3.00;;;;;18.08;64.99;100932.47;4991906;28;45278;-81
2022/06/27 02:25:13;;;;;;;;;4.00;4.00;;;;;18.18;65.43;100955.59;4991853;28;45324;-82
2022/06/27 02:27:40;;;;;;;;;2.75;2.75;;;;;18.25;65.43;100960.06;4991356;28;45232;-80
2022/06/27 02:30:06;;;;;;;;;3.50;2.75;;;;;18.10;65.59;100936.00;4971881;28;45985;-82
2022/06/27 02:32:31;;;;;;;;;4.00;3.00;;;;;18.28;65.00;100959.19;4990384;28;45241;-80
2022/06/27 02:34:57;;;;;;;;;4.75;4.00;;;;;18.21;65.53;100944.06;4991746;28;45133;-82
2022/06/27 02:37:26;;;;;;;;;4.00;3.75;;;;;18.11;65.11;100927.13;4990593;28;45229;-81
2022/06/27 02:39:54;;;;;;;;;2.25;2.25;;;;;18.31;65.29;100967.19;4989246;28;45455;-79
2022/06/27 02:42:22;;;;;;;;;2.75;2.75;;;;;18.31;65.28;100962.75;4990566;28;45171;-80
2022/06/27 02:44:49;;;;;;;;;4.00;3.75;;;;;18.21;65.06;100944.06;4988313;28;45365;-78
2022/06/27 02:47:18;;;;;;;;;3.50;2.75;;;;;18.36;64.74;100969.88;4991194;28;45122;-79
2022/06/27 02:49:44;;;;;;;;;2.00;2.00;;;;;18.20;65.17;100948.50;4989986;28;45388;-81
2022/06/27 02:52:21;;;;;;;;;4.00;4.00;;;;;18.36;65.17;100980.53;4992112;28;45133;-80
2022/06/27 02:55:13;;;;;;;;;2.25;1.75;;;;;18.39;65.20;100975.22;4989733;28;45350;-81
2022/06/27 02:57:48;;;;;;;;;3.50;2.75;;;;;18.41;64.72;100984.97;4985469;28;45368;-82
2022/06/27 03:00:14;;;;;;;;;4.00;3.00;;;;;18.36;65.25;100960.13;4974799;28;45445;-82
2022/06/27 03:02:44;;;;;;;;;2.75;2.75;;;;;18.45;64.49;100965.50;4985522;28;45300;-82
2022/06/27 03:05:09;;;;;;;;;3.50;3.25;;;;;18.47;64.79;100960.16;4973418;28;45608;-81
2022/06/27 03:07:39;;;;;;;;;4.00;2.00;;;;;18.40;64.71;100951.28;4974222;28;45600;-82
2022/06/27 03:10:05;;;;;;;;;3.75;3.25;;;;;18.40;64.84;100945.06;4973804;28;46327;-82
2022/06/27 03:12:30;;;;;;;;;3.75;3.00;;;;;18.32;64.53;100923.72;4972182;28;45535;-82
2022/06/27 03:14:56;;;;;;;;;2.75;1.75;;;;;18.39;64.65;100940.63;4973277;28;45932;-83
2022/06/27 03:17:21;;;;;;;;;3.50;2.25;;;;;18.34;65.27;100929.97;4974035;28;45591;-82
2022/06/27 03:19:47;;;;;;;;;2.50;2.50;;;;;18.40;64.86;100937.97;4973158;28;46327;-82
2022/06/27 03:22:12;;;;;;;;;1.75;1.75;;;;;18.31;64.94;100929.94;4973547;28;45448;-82
2022/06/27 03:24:37;;;;;;;;;3.00;2.75;;;;;18.23;65.13;100913.03;4974000;28;45664;-82
2022/06/27 03:27:03;;;;;;;;;2.75;2.75;;;;;18.24;65.14;100910.38;4973532;28;45413;-83
2022/06/27 03:29:28;;;;;;;;;4.50;4.50;;;;;18.19;65.27;100905.91;4972925;28;45617;-81
2022/06/27 03:31:54;;;;;;;;;5.00;4.25;;;;;18.30;64.96;100942.34;4973536;28;45421;-82
2022/06/27 03:34:19;;;;;;;;;2.50;2.50;;;;;18.23;64.26;100934.34;4971763;28;45452;-82
2022/06/27 03:36:45;;;;;;;;;3.00;3.00;;;;;18.09;64.62;100901.44;4985631;28;45552;-80
2022/06/27 03:39:11;;;;;;;;;4.00;3.25;;;;;18.28;64.30;100930.81;4990933;28;46239;-78
2022/06/27 03:41:37;;;;;;;;;2.25;2.25;;;;;18.25;65.04;100925.47;4986871;28;45213;-80
2022/06/27 03:44:04;;;;;;;;;3.00;3.00;;;;;18.20;65.14;100921.88;4991269;28;45150;-83
2022/06/27 03:46:29;;;;;;;;;2.75;2.75;;;;;18.34;64.41;100950.34;4991205;28;44917;-80
2022/06/27 03:51:38;;;;;;;;;2.00;2.00;;;;;18.34;65.25;100958.34;4990875;28;45109;-79
2022/06/27 03:54:04;;;;;;;;;3.25;3.25;;;;;18.37;64.98;100963.66;4991094;28;45047;-80
2022/06/27 03:56:29;;;;;;;;;3.00;3.00;;;;;18.35;64.96;100955.69;4986169;28;45162;-81
2022/06/27 03:58:55;;;;;;;;;4.00;4.00;;;;;18.30;64.79;100944.13;4974870;28;46140;-83
2022/06/27 04:01:20;;;;;;;;;3.75;3.75;;;;;18.33;65.22;100964.56;4993078;28;45189;-81
2022/06/27 04:03:45;;;;;;;;;5.25;4.75;;;;;18.28;64.94;100957.44;4993659;28;45125;-82
2022/06/27 04:06:11;;;;;;;;;3.75;2.75;;;;;18.31;65.21;100945.88;4992923;28;45062;-82
2022/06/27 04:08:36;;;;;;;;;3.25;3.00;;;;;18.21;65.39;100934.31;4994334;28;45578;-82
2022/06/27 04:11:01;;;;;;;;;4.00;4.00;;;;;18.24;65.30;100960.06;4994201;28;45179;-82
2022/06/27 04:13:27;;;;;;;;;3.00;3.00;;;;;18.18;65.73;100952.91;4994099;28;45028;-82
2022/06/27 04:15:52;;;;;;;;;3.25;3.25;;;;;18.25;65.81;100960.06;4990924;28;45347;-83
2022/06/27 04:18:17;;;;;;;;;5.00;4.00;;;;;18.19;65.90;100975.09;4994121;28;45580;-83
2022/06/27 04:20:43;;;;;;;;;4.25;4.00;;;;;18.01;65.14;100942.16;4994783;28;44944;-83
2022/06/27 04:23:08;;;;;;;;;3.75;3.75;;;;;18.03;64.95;100961.69;4994655;28;45138;-83
2022/06/27 04:25:34;;;;;;;;;5.75;4.75;;;;;18.21;65.27;100995.50;4994644;28;45043;-82
2022/06/27 04:27:59;;;;;;;;;4.00;3.50;;;;;18.06;65.70;100995.38;4993930;28;47463;-81
2022/06/27 04:30:25;;;;;;;;;6.00;5.00;;;;;18.08;65.29;101001.63;4991376;28;45102;-82
2022/06/27 04:32:51;;;;;;;;;7.50;5.25;;;;;18.14;65.27;101019.41;4989029;28;45643;-83
2022/06/27 04:35:17;;;;;;;;;5.75;5.75;;;;;18.10;64.84;101017.59;4993245;28;45027;-81
2022/06/27 04:37:43;;;;;;;;;3.25;3.00;;;;;18.03;65.00;101019.31;4992605;28;46271;-83
2022/06/27 04:40:11;;;;;;;;;3.00;3.00;;;;;18.09;64.78;101037.09;4993268;28;45201;-81
2022/06/27 04:42:36;;;;;;;;;4.25;4.25;;;;;18.00;64.98;101028.13;4993140;28;45050;-82
2022/06/27 04:45:03;;;;;;;;;4.50;3.75;;;;;18.09;65.39;101035.31;4993507;28;44977;-79
2022/06/27 04:47:29;;;;;;;;;4.75;4.50;;;;;18.11;65.39;101020.25;4991654;28;45780;-82
2022/06/27 04:49:54;;;;;;;;;4.75;4.00;;;;;18.08;65.17;101001.63;4983275;28;45224;-81
2022/06/27 04:52:20;;;;;;;;;3.00;3.00;;;;;18.11;65.70;101001.63;4986045;28;45369;-81
2022/06/27 04:54:45;;;;;;;;;4.75;4.75;;;;;18.17;65.54;101011.41;4986264;28;45206;-79
2022/06/27 04:57:12;;;;;;;;;3.75;2.75;;;;;18.10;65.62;100990.97;4977344;28;45517;-80
2022/06/27 04:59:38;;;;;;;;;6.75;6.25;;;;;18.13;65.66;100977.69;4960080;28;45503;-79
2022/06/27 05:02:03;;;;;;;;;2.00;2.00;;;;;18.12;65.03;100966.16;4986581;28;45329;-78
2022/06/27 05:04:30;;;;;;;;;4.75;4.75;;;;;18.10;64.91;100959.06;4986261;28;45109;-81
2022/06/27 05:06:56;;;;;;;;;4.75;4.75;;;;;18.13;65.42;100975.94;4993286;28;45883;-80
2022/06/27 05:09:22;;;;;;;;;4.25;4.00;;;;;18.07;65.56;100967.88;4993091;28;45353;-80
2022/06/27 05:11:50;;;;;;;;;5.75;5.00;;;;;18.21;66.18;101010.56;4975988;28;45429;-81
2022/06/27 05:14:16;;;;;;;;;3.00;3.00;;;;;18.21;65.66;101003.47;4969076;28;45416;-79
2022/06/27 05:16:41;;;;;;;;;5.00;4.00;;;;;18.16;65.41;100988.34;4975332;28;46269;-77
2022/06/27 05:19:06;;;;;;;;;5.50;4.50;;;;;18.18;65.86;100971.53;4978065;28;45450;-79
2022/06/27 05:21:32;;;;;;;;;3.75;3.50;;;;;18.17;65.73;100974.16;4989723;28;45361;-79
2022/06/27 05:23:57;;;;;;;;;4.50;3.75;;;;;18.28;65.11;100984.03;4987426;28;45680;-82
2022/06/27 05:26:23;;;;;;;;;4.00;3.50;;;;;18.26;65.67;100960.94;4979591;28;45574;-78
2022/06/27 05:28:48;;;;;;;;;4.75;4.75;;;;;18.30;65.47;100987.59;4974956;28;45609;-79
2022/06/27 05:31:14;;;;;;;;;4.25;3.75;;;;;18.44;65.00;101019.63;4986146;28;45560;-79
2022/06/27 05:33:39;;;;;;;;;4.50;4.00;;;;;18.38;64.78;100990.31;4979492;28;45523;-80
2022/06/27 05:36:06;;;;;;;;;4.75;4.75;;;;;18.44;64.68;100977.03;4983681;28;46575;-81
2022/06/27 05:38:31;;;;;;;;;6.25;5.25;;;;;18.42;64.24;100999.19;4984295;28;45597;-82
2022/06/27 05:41:00;;;;;;;;;6.25;6.25;;;;;18.39;64.58;101016.03;4974898;28;45378;-83
2022/06/27 05:43:26;;;;;;;;;2.75;2.75;;;;;18.42;64.50;101026.72;4981965;28;45383;-81
2022/06/27 05:45:53;;;;;;;;;4.50;4.00;;;;;18.32;64.16;100998.22;4990009;28;45185;-82
2022/06/27 05:48:19;;;;;;;;;4.75;4.50;;;;;18.20;65.06;100984.84;4987039;28;45561;-82
2022/06/27 05:50:44;;;;;;;;;3.75;3.75;;;;;18.38;64.69;101016.91;4992355;28;45043;-82
2022/06/27 05:53:09;;;;;;;;;4.50;2.75;;;;;18.36;64.67;101025.75;4992509;28;45070;-78
2022/06/27 05:55:35;;;;;;;;;2.75;2.75;;;;;18.33;65.18;101023.09;4992731;28;45496;-81
2022/06/27 05:58:02;;;;;;;;;3.50;3.50;;;;;18.38;64.52;101039.97;4991016;28;45403;-77
2022/06/27 06:00:28;;;;;;;;;2.75;2.75;;;;;18.38;64.47;101035.53;4983249;28;44994;-82
2022/06/27 06:02:54;;;;;;;;;2.75;2.75;;;;;18.43;64.35;101041.78;4985799;28;45050;-82
2022/06/27 06:05:21;;;;;;;;;4.00;3.75;;;;;18.42;64.34;101044.41;4972575;28;47302;-81
2022/06/27 06:07:48;;;;;;;;;3.75;3.75;;;;;18.49;64.78;101062.25;4984324;28;45425;-80
2022/06/27 06:10:14;;;;;;;;;3.50;2.75;;;;;18.25;64.11;101020.34;4987288;28;45304;-81
2022/06/27 06:12:40;;;;;;;;;4.00;4.00;;;;;18.45;63.88;101055.09;4976191;28;45391;-77
2022/06/27 06:15:06;;;;;;;;;3.50;3.50;;;;;18.28;65.20;101025.72;4990076;28;45425;-77
2022/06/27 06:17:34;;;;;;;;;5.00;3.75;;;;;18.30;64.28;101007.97;4986148;28;45761;-80
2022/06/27 06:20:01;;;;;;;;;3.50;2.75;;;;;18.54;64.09;101037.44;4984652;28;46206;-80
2022/06/27 06:22:27;;;;;;;;;3.00;3.00;;;;;18.51;64.59;101033.84;4978812;28;45508;-78
2022/06/27 06:24:53;;;;;;;;;1.25;1.25;;;;;18.45;64.56;101041.78;4982026;28;45837;-78
2022/06/27 06:27:21;;;;;;;;;3.75;3.00;;;;;18.20;64.34;101022.97;4978010;28;45956;-78
2022/06/27 06:29:47;;;;;;;;;4.00;3.25;;;;;18.57;65.08;101071.19;4960463;28;45426;-80
2022/06/27 06:32:13;;;;;;;;;3.00;3.00;;;;;18.68;64.29;101063.25;4968483;28;45269;-81
2022/06/27 06:34:40;;;;;;;;;3.75;3.75;;;;;18.65;64.18;101077.44;4986387;28;45432;-78
2022/06/27 06:37:06;;;;;;;;;4.50;4.50;;;;;18.61;64.55;101082.72;4982930;28;45599;-80
2022/06/27 06:39:32;;;;;;;;;1.75;1.00;;;;;18.64;64.27;101066.78;4978402;28;45333;-81
2022/06/27 06:41:57;;;;;;;;;3.00;3.00;;;;;18.59;64.46;101037.47;4979523;28;45093;-78
2022/06/27 06:44:24;;;;;;;;;4.75;3.00;;;;;18.81;64.14;101058.03;4983537;28;51141;-78
2022/06/27 06:46:54;;;;;;;;;3.25;3.25;;;;;18.73;63.66;101061.56;4978633;28;45543;-82
2022/06/27 06:49:20;;;;;;;;;2.00;2.00;;;;;18.74;64.43;101066.88;4966185;28;45746;-83
2022/06/27 06:51:45;;;;;;;;;4.25;3.75;;;;;18.87;63.99;101080.28;4954498;28;46052;-84
2022/06/27 06:54:17;;;;;;;;;3.75;3.50;;;;;18.85;63.42;101082.03;4975197;28;46534;-79
2022/06/27 06:56:46;;;;;;;;;5.00;3.75;;;;;19.01;63.68;101106.13;4973440;28;45742;-77
2022/06/27 06:59:12;;;;;;;;;4.75;4.50;;;;;18.91;63.23;101098.94;4980418;28;45541;-87
2022/06/27 07:01:38;;;;;;;;;4.00;3.75;;;;;19.00;63.45;101128.28;4955207;28;45598;-78
2022/06/27 07:04:03;;;;;;;;;4.00;3.00;;;;;18.85;63.35;101119.31;4979067;28;45536;-78
2022/06/27 07:06:29;;;;;;;;;4.00;3.75;;;;;18.97;63.56;101144.28;4968512;28;46150;-83
2022/06/27 07:08:58;;;;;;;;;4.00;4.00;;;;;18.96;63.16;101142.47;4976643;28;45389;-81
2022/06/27 07:11:29;;;;;;;;;2.00;2.00;;;;;18.83;63.13;101132.63;4970557;28;45464;-81
2022/06/27 07:13:56;;;;;;;;;3.00;3.00;;;;;19.01;63.62;101159.41;4980704;28;46223;-81
2022/06/27 07:16:24;;;;;;;;;3.00;3.00;;;;;18.93;62.90;101144.25;4969193;28;46578;-80
2022/06/27 07:18:50;;;;;;;;;3.00;3.00;;;;;18.99;63.05;101161.16;4971915;28;45483;-80
2022/06/27 07:21:19;;;;;;;;;5.00;3.00;;;;;19.00;63.44;101159.38;4974110;28;45543;-80
2022/06/27 07:23:49;;;;;;;;;3.50;3.25;;;;;18.98;63.47;101154.03;4973826;28;45595;-82
2022/06/27 07:26:17;;;;;;;;;4.25;3.25;;;;;19.00;63.10;101146.03;4973301;28;45684;-79
2022/06/27 07:28:43;;;;;;;;;3.25;3.25;;;;;19.15;62.75;101153.25;4973209;28;46322;-81
2022/06/27 07:31:11;;;;;;;;;3.00;3.00;;;;;19.19;63.33;101141.72;4973319;28;45683;-80
2022/06/27 07:33:42;;;;;;;;;5.00;4.00;;;;;19.40;62.82;101148.94;4973623;28;45541;-86
2022/06/27 07:36:11;;;;;;;;;2.25;2.00;;;;;19.46;62.27;101128.56;4973988;28;46021;-83
2022/06/27 07:38:38;;;;;;;;;3.00;3.00;;;;;19.46;61.75;101120.56;4974741;28;45802;-88
2022/06/27 07:41:07;;;;;;;;;4.00;4.00;;;;;19.49;62.22;101115.22;4974134;28;45307;-79
2022/06/27 07:43:34;;;;;;;;;5.25;4.00;;;;;19.52;61.24;101119.69;4974132;28;46448;-80
2022/06/27 07:46:01;;;;;;;;;4.00;4.00;;;;;19.70;61.88;101142.88;4974391;28;46115;-82
2022/06/27 07:48:27;;;;;;;;;3.75;3.00;;;;;19.79;61.11;101140.25;4973635;28;45303;-82
2022/06/27 07:50:52;;;;;;;;;2.50;2.50;;;;;19.74;60.63;101126.88;4973996;28;45377;-79
2022/06/27 07:53:19;;;;;;;;;2.00;2.00;;;;;19.95;60.52;101144.75;4974321;28;45631;-80
2022/06/27 07:55:45;;;;;;;;;2.25;2.25;;;;;20.14;60.40;101164.34;4973061;28;45798;-79
2022/06/27 07:58:16;;;;;;;;;3.00;3.00;;;;;20.09;59.99;101148.31;4974363;28;45718;-82
2022/06/27 08:00:45;;;;;;;;;4.00;3.50;;;;;19.97;59.26;101140.31;4973798;28;45476;-79
2022/06/27 08:03:39;;;;;;;;;2.50;2.50;;;;;20.14;60.15;101159.00;4979817;28;46335;-79
2022/06/27 08:06:19;;;;;;;;;3.25;2.75;;;;;20.33;59.53;101170.63;4963217;28;45835;-79
2022/06/27 08:08:47;;;;;;;;;5.00;3.75;;;;;20.38;59.25;101170.63;4992184;28;45867;-79
2022/06/27 08:11:15;;;;;;;;;2.50;2.50;;;;;20.31;58.93;101159.94;5002904;28;45089;-79
2022/06/27 08:13:44;;;;;;;;;3.00;3.00;;;;;20.20;58.75;101150.16;4986158;28;45317;-80
2022/06/27 08:16:14;;;;;;;;;2.00;2.00;;;;;20.22;58.70;101178.59;4981710;28;45572;-79
2022/06/27 08:18:39;;;;;;;;;2.00;2.00;;;;;20.15;58.80;101170.56;4982642;28;45418;-80
2022/06/27 08:21:08;;;;;;;;;3.00;3.00;;;;;20.20;58.51;101179.50;4986022;28;45285;-78
2022/06/27 08:23:34;;;;;;;;;4.75;4.50;;;;;19.94;59.16;101161.63;4983715;28;45561;-80
2022/06/27 08:26:00;;;;;;;;;4.75;4.00;;;;;19.99;58.95;101175.88;4990045;28;45364;-81
2022/06/27 08:28:28;;;;;;;;;4.00;3.25;;;;;19.98;58.78;101171.44;4983023;28;45352;-81
2022/06/27 08:30:54;;;;;;;;;2.00;2.00;;;;;19.96;58.80;101140.31;4983640;28;44943;-80
2022/06/27 08:33:19;;;;;;;;;2.75;2.00;;;;;20.21;58.15;101166.16;4983864;28;45290;-80
2022/06/27 08:35:47;;;;;;;;;2.00;1.75;;;;;20.30;57.79;101159.94;4983753;28;45070;-79
2022/06/27 08:38:15;;;;;;;;;2.00;2.00;;;;;20.46;57.19;101193.78;4966989;28;45215;-79
2022/06/27 08:40:40;;;;;;;;;2.00;2.00;;;;;20.40;57.78;101193.78;4980353;28;45123;-79
2022/06/27 08:43:06;;;;;;;;;2.50;2.50;;;;;20.41;57.08;101195.56;4985892;28;45307;-79
2022/06/27 08:45:32;;;;;;;;;1.00;1.00;;;;;20.25;57.29;101151.94;4987499;28;45193;-80
2022/06/27 08:48:06;;;;;;;;;3.00;2.75;;;;;20.55;56.67;101184.94;4982868;28;45104;-80
2022/06/27 08:50:34;;;;;;;;;1.50;1.00;;;;;20.74;56.43;101200.06;4986233;28;45292;-80
2022/06/27 08:53:00;;;;;;;;;1.25;1.00;;;;;20.81;55.60;101172.44;4985523;28;45850;-80
2022/06/27 08:55:26;;;;;;;;;2.75;1.25;;;;;20.76;55.34;101141.28;4986908;28;45252;-80
2022/06/27 08:57:51;;;;;;;;;2.25;2.25;;;;;20.94;55.55;101173.34;4985814;28;45260;-80
2022/06/27 09:00:22;;;;;;;;;2.00;2.00;;;;;20.86;55.51;101178.69;4989905;28;45198;-80
2022/06/27 09:02:48;;;;;;;;;1.75;1.75;;;;;20.85;55.68;101179.56;5003160;28;45275;-79
2022/06/27 09:05:26;;;;;;;;;2.00;2.00;;;;;20.72;55.58;101174.22;5003006;28;45291;-80
2022/06/27 09:07:56;;;;;;;;;1.50;1.50;;;;;20.68;55.36;101164.44;4994898;28;45444;-80
2022/06/27 09:10:39;;;;;;;;;1.75;1.75;;;;;20.79;55.66;101182.25;4984194;28;45317;-80
2022/06/27 09:13:09;;;;;;;;;1.00;1.00;;;;;20.68;55.20;101183.13;4983168;28;45949;-81
2022/06/27 09:15:50;;;;;;;;;1.75;1.25;;;;;20.35;55.46;101144.81;4986077;28;45329;-80
2022/06/27 09:18:20;;;;;;;;;0.75;0.75;;;;;20.46;55.05;101171.53;4988462;28;45275;-80
2022/06/27 09:20:52;;;;;;;;;3.00;2.00;;;;;20.45;54.57;101175.97;4980134;28;45404;-80
2022/06/27 09:23:35;;;;;;;;;1.75;1.25;;;;;20.41;54.42;101179.53;4982837;28;46147;-81
2022/06/27 09:26:32;;;;;;;;;2.00;2.00;;;;;20.30;55.04;101175.97;4981673;28;45650;-81
2022/06/27 09:29:00;;;;;;;;;1.00;1.00;;;;;20.28;54.32;101167.94;4967826;28;45817;-79
2022/06/27 09:31:31;;;;;;;;;2.00;1.00;;;;;20.43;54.46;101187.53;4972121;28;45422;-80
2022/06/27 09:34:10;;;;;;;;;2.00;2.00;;;;;20.46;54.17;101180.44;4971699;28;46417;-79
2022/06/27 09:36:39;;;;;;;;;1.00;1.00;;;;;20.42;54.01;101178.63;4969797;28;45394;-80
2022/06/27 09:39:06;;;;;;;;;1.00;1.00;;;;;20.51;53.89;101176.00;4971567;28;45385;-80
2022/06/27 09:41:35;;;;;;;;;4.00;4.00;;;;;20.52;53.76;101177.78;4971318;28;45388;-80
2022/06/27 09:44:10;;;;;;;;;1.00;1.00;;;;;20.47;53.42;101158.19;4970866;28;45484;-79
2022/06/27 09:46:42;;;;;;;;;0.00;0.00;;;;;20.48;53.02;101148.41;4973105;28;45849;-79
2022/06/27 09:49:12;;;;;;;;;0.00;0.00;;;;;20.73;52.99;101182.25;4981195;28;45477;-79
2022/06/27 09:51:39;;;;;;;;;1.00;1.00;;;;;20.78;52.13;101179.56;4990109;28;45080;-79
2022/06/27 09:54:16;;;;;;;;;0.50;0.50;;;;;20.83;51.79;101181.34;4965826;28;47285;-80
2022/06/27 09:56:45;;;;;;;;;1.00;1.00;;;;;20.76;51.60;101162.66;4953789;28;45801;-80
2022/06/27 09:59:12;;;;;;;;;1.00;1.00;;;;;20.94;51.11;101178.69;4971809;28;45475;-80
2022/06/27 10:01:40;;;;;;;;;0.25;0.25;;;;;20.97;50.19;101181.34;4971939;28;45445;-79
2022/06/27 10:04:06;;;;;;;;;1.00;1.00;;;;;20.78;49.48;101147.50;4970557;28;45667;-81
2022/06/27 10:06:31;;;;;;;;;3.00;1.00;;;;;21.02;49.68;101174.19;4969324;28;46271;-81
2022/06/27 10:08:58;;;;;;;;;1.75;1.50;;;;;21.09;48.98;101178.66;4971743;28;45891;-81
2022/06/27 10:11:25;;;;;;;;;1.00;1.00;;;;;21.13;48.57;101191.13;4969971;28;45500;-81
2022/06/27 10:14:19;;;;;;;;;0.75;0.75;;;;;21.21;49.08;101187.53;4971938;28;46503;-79
2022/06/27 10:16:57;;;;;;;;;1.00;0.00;;;;;21.10;48.42;101169.75;4970474;28;45548;-80
2022/06/27 10:19:27;;;;;;;;;1.00;1.00;;;;;21.26;48.30;101183.06;4970956;28;45549;-80
2022/06/27 10:21:54;;;;;;;;;1.50;1.00;;;;;21.24;48.86;101168.84;4971697;28;45642;-80
2022/06/27 10:24:19;;;;;;;;;2.00;2.00;;;;;21.44;48.15;101188.41;4970113;28;46385;-81
2022/06/27 10:26:46;;;;;;;;;1.00;1.00;;;;;21.52;48.40;101191.94;4967667;28;45724;-79
2022/06/27 10:29:30;;;;;;;;;1.00;1.00;;;;;21.66;47.85;101191.00;4952891;28;45995;-80
2022/06/27 10:31:56;;;;;;;;;1.00;1.00;;;;;21.59;47.65;101166.97;4948283;28;45837;-78
2022/06/27 10:34:40;;;;;;;;;0.25;0.25;;;;;21.84;47.50;101182.91;4969322;28;46369;-79
2022/06/27 10:37:24;;;;;;;;;1.00;1.00;;;;;21.96;46.98;101196.22;4969684;28;45505;-79
2022/06/27 10:39:54;;;;;;;;;1.50;1.00;;;;;21.97;46.87;101192.66;4971095;28;45741;-79
2022/06/27 10:42:45;;;;;;;;;1.00;1.00;;;;;21.98;46.32;101190.88;4969334;28;45873;-80
2022/06/27 10:45:20;;;;;;;;;1.00;1.00;;;;;22.08;47.07;101203.31;4952879;28;47784;-80
2022/06/27 10:47:51;;;;;;;;;1.50;1.00;;;;;22.08;47.70;101188.16;4969646;28;45883;-80
2022/06/27 10:50:22;;;;;;;;;1.00;1.00;;;;;22.22;47.63;101197.94;4970016;28;45750;-80
2022/06/27 10:52:47;;;;;;;;;1.00;1.00;;;;;22.17;47.23;101175.59;4971011;28;45486;-78
2022/06/27 10:55:32;;;;;;;;;2.50;1.00;;;;;22.32;47.30;101188.94;4970773;28;46155;-81
2022/06/27 10:57:58;;;;;;;;;0.00;0.00;;;;;22.24;47.81;101158.63;4952863;28;45817;-79
2022/06/27 11:00:42;;;;;;;;;2.00;1.00;;;;;22.64;47.17;101207.44;4976053;28;45509;-80
2022/06/27 11:03:20;;;;;;;;;1.25;1.25;;;;;22.49;47.24;101176.28;4972895;28;45569;-79
2022/06/27 11:06:08;;;;;;;;;2.25;2.00;;;;;22.35;46.99;101171.03;4970847;28;46680;-79
2022/06/27 11:08:36;;;;;;;;;1.00;1.00;;;;;22.20;47.76;101171.13;4970967;28;45386;-79
2022/06/27 11:11:03;;;;;;;;;2.25;2.00;;;;;22.25;47.44;101184.50;4970016;28;45311;-79
2022/06/27 11:13:35;;;;;;;;;1.75;1.75;;;;;22.09;47.29;101156.91;4970531;28;45573;-80
2022/06/27 11:16:02;;;;;;;;;2.00;1.25;;;;;22.19;47.30;101168.47;4970406;28;46814;-79
2022/06/27 11:18:42;;;;;;;;;2.25;2.00;;;;;22.31;46.81;101184.44;4965459;28;46112;-80
2022/06/27 11:21:12;;;;;;;;;1.50;1.00;;;;;22.31;46.63;101153.19;4963473;28;45717;-81
2022/06/27 11:23:53;;;;;;;;;1.00;1.00;;;;;22.93;45.89;101209.91;4964359;28;45813;-79
2022/06/27 11:26:21;;;;;;;;;1.00;1.00;;;;;23.06;44.49;101197.31;4966171;28;47378;-80
2022/06/27 11:34:15;;;;;;;;;1.50;1.50;;;;;22.79;43.14;101198.38;4961502;28;45598;-80
2022/06/27 11:36:41;;;;;;;;;1.00;1.00;;;;;22.65;42.93;101171.69;4962738;28;47228;-79
2022/06/27 11:39:07;;;;;;;;;1.00;1.00;;;;;22.84;42.88;101199.22;4968747;28;45868;-80